Carrier Princess — CZ3582 — position and weather

sailwx.info

Track history (hours):
 
Tides and Currents Weather Stations Pressure Air Temp Water Temp Dewpoint Dewpoint Depression Visibility Wind Speed Wind Dir Waves Ship Positions

Carrier Princess

Last reported at 2014-Jul-28 03:34 UTC. Time now 2014-Jul-28 04:20 UTC.
Position N 49°09' W 123°02'.

Length 112 m; draft 3 m.

Type: Cargo ship. MMSI: 316003656.

Date/timePositionNaut miles runAvg speedWind from/ knotsBaromVisibWave heightAir tempDewpointWater temp
2014-Jul-28 03:34N 49°09' W 123°02'0 0.0
2014-Jul-28 02:34N 49°09' W 123°02'0 0.0
2014-Jul-28 01:34N 49°09' W 123°02'0 0.0
2014-Jul-28 00:33N 49°09' W 123°02'0 0.0
2014-Jul-27 23:34N 49°09' W 123°02'0 0.0
2014-Jul-27 22:34N 49°09' W 123°02'0 0.0
2014-Jul-27 21:34N 49°09' W 123°02'0 0.0
2014-Jul-27 20:33N 49°09' W 123°02'0 0.0
2014-Jul-27 19:34N 49°09' W 123°02'0 0.0
2014-Jul-27 18:33N 49°09' W 123°02'0 0.0
2014-Jul-27 17:34N 49°09' W 123°02'0 0.0
2014-Jul-27 16:33N 49°09' W 123°02'0 0.0
2014-Jul-27 15:33N 49°09' W 123°02'5 5.4
2014-Jul-27 14:33N 49°07' W 123°10'1010.2
2014-Jul-27 13:33N 49°07' W 123°25'1111.2
2014-Jul-27 12:34N 49°11' W 123°41'10 9.5
2014-Jul-27 11:34N 49°10' W 123°56'0 0.1
2014-Jul-27 10:33N 49°10' W 123°56'0 0.0
2014-Jul-27 09:34N 49°10' W 123°56'5 5.0
2014-Jul-27 08:34N 49°13' W 123°50'9 8.8
2014-Jul-27 07:34N 49°12' W 123°37'9 9.1
2014-Jul-27 06:33N 49°08' W 123°25'1110.8
2014-Jul-27 05:34N 49°06' W 123°09'5 4.8
2014-Jul-27 04:33N 49°09' W 123°02'0 0.0
2014-Jul-27 03:33N 49°09' W 123°02'0 0.0
2014-Jul-27 02:33N 49°09' W 123°02'0 0.0
2014-Jul-27 01:33N 49°09' W 123°02'0 0.0
2014-Jul-27 00:33N 49°09' W 123°02'0 0.0
2014-Jul-26 23:33N 49°09' W 123°02'0 0.0
2014-Jul-26 22:33N 49°09' W 123°02'3 3.3
2014-Jul-26 21:33N 49°07' W 123°06'1312.6
2014-Jul-26 20:33N 49°08' W 123°25'1413.6
2014-Jul-26 19:33N 49°13' W 123°44'8 7.9
2014-Jul-26 18:33N 49°10' W 123°56'0 0.0
2014-Jul-26 17:29N 49°10' W 123°56'0 0.0
2014-Jul-26 16:33N 49°10' W 123°56'0 0.0
2014-Jul-26 15:33N 49°10' W 123°56'0 0.0
2014-Jul-26 14:33N 49°10' W 123°56'0 0.0
2014-Jul-26 13:33N 49°10' W 123°56'0 0.0
2014-Jul-26 12:33N 49°10' W 123°56'2 1.8
2014-Jul-26 11:33N 49°11' W 123°54'1313.5
2014-Jul-26 10:33N 49°09' W 123°33'1414.2
2014-Jul-26 09:33N 49°07' W 123°12'6 6.5
2014-Jul-26 08:33N 49°09' W 123°02'0 0.0
2014-Jul-26 07:33N 49°09' W 123°02'7 7.0
2014-Jul-26 06:33N 49°08' W 123°13'1110.8
2014-Jul-26 05:33N 49°08' W 123°29'1312.7
2014-Jul-26 04:33N 49°13' W 123°47'6 6.4
2014-Jul-26 03:34N 49°10' W 123°56'0 0.0
2014-Jul-26 02:34N 49°10' W 123°56'1110.7
2014-Jul-26 01:33N 49°12' W 123°40'1313.5
2014-Jul-26 00:34N 49°07' W 123°21'1211.6
2014-Jul-25 23:34N 49°08' W 123°03'1 0.6
2014-Jul-25 22:34N 49°09' W 123°02'4 3.8
2014-Jul-25 21:34N 49°07' W 123°07'9 9.0
2014-Jul-25 20:33N 49°03' W 123°20'1313.0
2014-Jul-25 19:33N 48°50' W 123°21'9 9.1
2014-Jul-25 18:33N 48°41' W 123°24'0 0.0
2014-Jul-25 17:33N 48°41' W 123°24'0 0.0
2014-Jul-25 16:33N 48°41' W 123°24'0 0.0
2014-Jul-25 15:33N 48°41' W 123°24'0 0.0
2014-Jul-25 14:33N 48°41' W 123°24'0 0.0
2014-Jul-25 13:33N 48°41' W 123°24'0 0.0
2014-Jul-25 12:33N 48°41' W 123°24'1 0.5
2014-Jul-25 11:34N 48°42' W 123°24'1413.9
2014-Jul-25 10:33N 48°55' W 123°18'1313.0
2014-Jul-25 09:33N 49°08' W 123°14'8 7.8
2014-Jul-25 08:34N 49°09' W 123°02'0 0.0
2014-Jul-25 07:34N 49°09' W 123°02'8 7.5
2014-Jul-25 06:33N 49°08' W 123°14'1110.6
2014-Jul-25 05:33N 49°08' W 123°30'1313.1
2014-Jul-25 04:34N 49°13' W 123°48'6 5.7
2014-Jul-25 03:33N 49°10' W 123°56'0 0.4
2014-Jul-25 02:33N 49°10' W 123°55'1111.1
2014-Jul-25 01:33N 49°12' W 123°38'1414.0
2014-Jul-25 00:34N 49°06' W 123°19'1111.1
2014-Jul-24 23:34N 49°09' W 123°02'0 0.1
2014-Jul-24 22:33N 49°09' W 123°02'5 4.6
2014-Jul-24 21:33N 49°06' W 123°08'9 9.0
2014-Jul-24 20:33N 49°01' W 123°20'1312.8
2014-Jul-24 19:34N 48°49' W 123°21'8 7.6
2014-Jul-24 18:32N 48°41' W 123°24'0 0.0
2014-Jul-24 17:33N 48°41' W 123°24'0 0.0
2014-Jul-24 16:33N 48°41' W 123°24'0 0.0
2014-Jul-24 15:33N 48°41' W 123°24'0 0.0
2014-Jul-24 14:33N 48°41' W 123°24'0 0.0
2014-Jul-24 13:33N 48°41' W 123°24'0 0.0
2014-Jul-24 12:33N 48°41' W 123°24'0 0.5
2014-Jul-24 11:34N 48°42' W 123°24'1313.5
2014-Jul-24 10:34N 48°55' W 123°18'1413.5
2014-Jul-24 09:34N 49°08' W 123°13'7 6.9
2014-Jul-24 08:33N 49°09' W 123°02'0 0.0
2014-Jul-24 07:33N 49°09' W 123°02'7 6.7
2014-Jul-24 06:33N 49°07' W 123°12'1211.8
2014-Jul-24 05:34N 49°09' W 123°30'1312.9
2014-Jul-24 04:34N 49°13' W 123°49'6 5.6
2014-Jul-24 03:33N 49°10' W 123°56'0 0.1
2014-Jul-24 02:33N 49°10' W 123°56'1110.9
2014-Jul-24 01:33N 49°12' W 123°39'1313.2
2014-Jul-24 00:33N 49°06' W 123°21'1312.7
2014-Jul-23 23:34N 49°09' W 123°02'0 0.0
2014-Jul-23 22:33N 49°09' W 123°02'4 3.9
2014-Jul-23 21:34N 49°07' W 123°07'9 9.3
2014-Jul-23 20:33N 49°02' W 123°20'1312.8
2014-Jul-23 19:33N 48°50' W 123°21'9 8.7
2014-Jul-23 18:33N 48°41' W 123°24'0 0.0
2014-Jul-23 17:33N 48°41' W 123°24'0 0.0
2014-Jul-23 16:33N 48°41' W 123°24'0 0.0
2014-Jul-23 15:33N 48°41' W 123°24'0 0.0
2014-Jul-23 14:33N 48°41' W 123°24'0 0.0
2014-Jul-23 13:33N 48°41' W 123°24'0 0.0
2014-Jul-23 12:33N 48°41' W 123°24'1 0.9
2014-Jul-23 11:33N 48°42' W 123°24'1414.0
2014-Jul-23 10:33N 48°56' W 123°19'1212.5
2014-Jul-23 09:33N 49°08' W 123°14'8 8.0
2014-Jul-23 08:33N 49°09' W 123°02'0 0.0
2014-Jul-23 07:33N 49°09' W 123°02'7 6.7
2014-Jul-23 06:33N 49°07' W 123°12'1212.0
2014-Jul-23 05:33N 49°09' W 123°31'1312.6
2014-Jul-23 04:33N 49°13' W 123°49'6 5.7
2014-Jul-23 03:33N 49°10' W 123°56'0 0.1
2014-Jul-23 02:33N 49°10' W 123°56'1110.9
2014-Jul-23 01:34N 49°12' W 123°39'1413.5
2014-Jul-23 00:34N 49°06' W 123°21'1211.6
2014-Jul-22 23:33N 49°08' W 123°03'1 0.8
2014-Jul-22 22:33N 49°09' W 123°02'4 4.3
2014-Jul-22 21:33N 49°06' W 123°08'9 9.0
2014-Jul-22 20:33N 49°02' W 123°20'1211.5
2014-Jul-22 19:32N 48°51' W 123°21'10 9.8
2014-Jul-22 18:34N 48°41' W 123°24'0 0.0
2014-Jul-22 17:34N 48°41' W 123°24'0 0.0
2014-Jul-22 16:33N 48°41' W 123°24'0 0.0
2014-Jul-22 15:34N 48°41' W 123°24'0 0.0
2014-Jul-22 14:33N 48°41' W 123°24'0 0.0
2014-Jul-22 13:33N 48°41' W 123°24'0 0.0
2014-Jul-22 12:33N 48°41' W 123°24'0 0.2
2014-Jul-22 11:33N 48°41' W 123°24'1818.4
2014-Jul-22 10:33N 48°60' W 123°20'9 9.3
2014-Jul-22 09:34N 49°07' W 123°12'7 6.6
2014-Jul-22 08:33N 49°09' W 123°02'0 0.0
2014-Jul-22 07:33N 49°09' W 123°02'9 9.1
2014-Jul-22 06:33N 49°07' W 123°16'1212.1
2014-Jul-22 05:33N 49°09' W 123°34'1312.7
2014-Jul-22 04:33N 49°12' W 123°53'2 2.3
2014-Jul-22 03:33N 49°10' W 123°56'0 0.4
2014-Jul-22 02:33N 49°10' W 123°55'1111.4
2014-Jul-22 01:33N 49°12' W 123°38'1413.6
2014-Jul-22 00:34N 49°06' W 123°19'1111.5
2014-Jul-21 23:33N 49°09' W 123°02'0 0.1
2014-Jul-21 22:34N 49°09' W 123°02'0 0.1
2014-Jul-21 21:33N 49°09' W 123°02'0 0.0
2014-Jul-21 20:33N 49°09' W 123°02'0 0.0
2014-Jul-21 20:18N 49°09' W 123°02'0 0.0
2014-Jul-21 19:33N 49°09' W 123°02'0 0.0
2014-Jul-21 18:34N 49°09' W 123°02'0 0.0
2014-Jul-21 17:33N 49°09' W 123°02'0 0.0
2014-Jul-21 16:33N 49°09' W 123°02'0 0.0
2014-Jul-21 15:34N 49°09' W 123°02'0 0.0
2014-Jul-21 14:34N 49°09' W 123°02'0 0.0
2014-Jul-21 13:33N 49°09' W 123°02'0 0.0
2014-Jul-21 12:33N 49°09' W 123°02'0 0.0
2014-Jul-21 11:33N 49°09' W 123°02'0 0.0
2014-Jul-21 10:34N 49°09' W 123°02'0 0.0
2014-Jul-21 09:34N 49°09' W 123°02'0 0.0
2014-Jul-21 08:34N 49°09' W 123°02'0 0.0
2014-Jul-21 07:34N 49°09' W 123°02'0 0.0
2014-Jul-21 06:33N 49°09' W 123°02'0 0.0
2014-Jul-21 05:34N 49°09' W 123°02'0 0.0
2014-Jul-21 04:34N 49°09' W 123°02'0 0.0
2014-Jul-21 03:33N 49°09' W 123°02'0 0.0
2014-Jul-21 02:33N 49°09' W 123°02'0 0.0
2014-Jul-21 01:34N 49°09' W 123°02'0 0.0
2014-Jul-21 00:33N 49°09' W 123°02'0 0.0
2014-Jul-20 23:34N 49°09' W 123°02'0 0.0
2014-Jul-20 22:33N 49°09' W 123°02'0 0.0
2014-Jul-20 21:34N 49°09' W 123°02'0 0.0
2014-Jul-20 20:34N 49°09' W 123°02'0 0.0
2014-Jul-20 19:33N 49°09' W 123°02'0 0.0
2014-Jul-20 18:33N 49°09' W 123°02'0 0.0
2014-Jul-20 17:33N 49°09' W 123°02'0 0.0
2014-Jul-20 16:34N 49°09' W 123°02'0 0.0
2014-Jul-20 15:34N 49°09' W 123°02'6 6.3
2014-Jul-20 14:34N 49°07' W 123°11'9 9.0
2014-Jul-20 13:34N 49°07' W 123°25'1110.7
2014-Jul-20 12:34N 49°11' W 123°41'9 9.4
2014-Jul-20 11:33N 49°10' W 123°55'1 0.5
2014-Jul-20 10:33N 49°10' W 123°56'0 0.0
2014-Jul-20 09:33N 49°10' W 123°56'7 6.9
2014-Jul-20 08:33N 49°13' W 123°47'10 9.7
2014-Jul-20 07:34N 49°10' W 123°33'10 9.9
2014-Jul-20 06:34N 49°06' W 123°19'1110.5
2014-Jul-20 05:33N 49°08' W 123°03'1 0.7
2014-Jul-20 04:33N 49°09' W 123°02'0 0.0
2014-Jul-20 03:33N 49°09' W 123°02'0 0.0
2014-Jul-20 02:33N 49°09' W 123°02'0 0.0
2014-Jul-20 01:33N 49°09' W 123°02'0 0.0
2014-Jul-20 00:34N 49°09' W 123°02'0 0.0
2014-Jul-19 23:33N 49°09' W 123°02'0 0.0
2014-Jul-19 22:34N 49°09' W 123°02'4 3.7
2014-Jul-19 21:33N 49°07' W 123°07'1211.7
2014-Jul-19 20:33N 49°07' W 123°25'1313.2
2014-Jul-19 19:34N 49°12' W 123°43'8 8.2
2014-Jul-19 18:33N 49°10' W 123°56'0 0.0
2014-Jul-19 17:34N 49°10' W 123°56'0 0.0
2014-Jul-19 16:33N 49°10' W 123°56'0 0.0
2014-Jul-19 15:33N 49°10' W 123°56'0 0.0
2014-Jul-19 14:33N 49°10' W 123°56'0 0.0
2014-Jul-19 13:34N 49°10' W 123°56'0 0.0
2014-Jul-19 12:34N 49°10' W 123°56'5 5.4
2014-Jul-19 11:34N 49°13' W 123°49'1212.2
2014-Jul-19 10:33N 49°09' W 123°32'1313.0
2014-Jul-19 09:33N 49°07' W 123°12'7 6.7
2014-Jul-19 08:33N 49°09' W 123°02'0 0.0
2014-Jul-19 07:33N 49°09' W 123°02'9 9.2
2014-Jul-19 06:34N 49°07' W 123°16'1111.4
2014-Jul-19 05:33N 49°09' W 123°33'1111.2
2014-Jul-19 04:34N 49°13' W 123°49'5 5.2
2014-Jul-19 03:34N 49°10' W 123°56'0 0.2
2014-Jul-19 02:33N 49°10' W 123°55'1110.7
2014-Jul-19 01:34N 49°12' W 123°39'1312.5
2014-Jul-19 00:33N 49°07' W 123°22'1312.9
2014-Jul-18 23:33N 49°09' W 123°02'0 0.2
2014-Jul-18 22:33N 49°09' W 123°02'5 5.1
2014-Jul-18 21:33N 49°06' W 123°09'9 8.7
2014-Jul-18 20:33N 49°01' W 123°20'1010.3
2014-Jul-18 19:33N 48°51' W 123°21'1010.0
2014-Jul-18 18:33N 48°41' W 123°24'0 0.0
2014-Jul-18 17:34N 48°41' W 123°24'0 0.0
2014-Jul-18 16:33N 48°41' W 123°24'0 0.0
2014-Jul-18 15:33N 48°41' W 123°24'0 0.0
2014-Jul-18 14:33N 48°41' W 123°24'0 0.0
2014-Jul-18 13:34N 48°41' W 123°24'0 0.0
2014-Jul-18 12:34N 48°41' W 123°24'3 2.8
2014-Jul-18 11:33N 48°43' W 123°21'1010.4
2014-Jul-18 10:34N 48°53' W 123°18'1413.6
2014-Jul-18 09:33N 49°07' W 123°17'1010.0
2014-Jul-18 08:33N 49°09' W 123°02'0 0.0
2014-Jul-18 07:33N 49°09' W 123°02'9 9.0
2014-Jul-18 06:33N 49°07' W 123°16'1111.3
2014-Jul-18 05:33N 49°09' W 123°33'1211.6
2014-Jul-18 04:33N 49°13' W 123°50'  
Track history (hours):
 
Tides and Currents Weather Stations Pressure Air Temp Water Temp Dewpoint Dewpoint Depression Visibility Wind Speed Wind Dir Waves Ship Positions

Carrier Princess

Last reported at 2014-Jul-28 03:34 UTC. Time now 2014-Jul-28 04:20 UTC.
Position N 49°09' W 123°02'.

Length 112 m; draft 3 m.

Type: Cargo ship. MMSI: 316003656.

Date/timePositionNaut miles runAvg speedWind from/ knotsBaromVisibWave heightAir tempDewpointWater temp
2014-Jul-28 03:34N 49°09' W 123°02'0 0.0
2014-Jul-28 02:34N 49°09' W 123°02'0 0.0
2014-Jul-28 01:34N 49°09' W 123°02'0 0.0
2014-Jul-28 00:33N 49°09' W 123°02'0 0.0
2014-Jul-27 23:34N 49°09' W 123°02'0 0.0
2014-Jul-27 22:34N 49°09' W 123°02'0 0.0
2014-Jul-27 21:34N 49°09' W 123°02'0 0.0
2014-Jul-27 20:33N 49°09' W 123°02'0 0.0
2014-Jul-27 19:34N 49°09' W 123°02'0 0.0
2014-Jul-27 18:33N 49°09' W 123°02'0 0.0
2014-Jul-27 17:34N 49°09' W 123°02'0 0.0
2014-Jul-27 16:33N 49°09' W 123°02'0 0.0
2014-Jul-27 15:33N 49°09' W 123°02'5 5.4
2014-Jul-27 14:33N 49°07' W 123°10'1010.2
2014-Jul-27 13:33N 49°07' W 123°25'1111.2
2014-Jul-27 12:34N 49°11' W 123°41'10 9.5
2014-Jul-27 11:34N 49°10' W 123°56'0 0.1
2014-Jul-27 10:33N 49°10' W 123°56'0 0.0
2014-Jul-27 09:34N 49°10' W 123°56'5 5.0
2014-Jul-27 08:34N 49°13' W 123°50'9 8.8
2014-Jul-27 07:34N 49°12' W 123°37'9 9.1
2014-Jul-27 06:33N 49°08' W 123°25'1110.8
2014-Jul-27 05:34N 49°06' W 123°09'5 4.8
2014-Jul-27 04:33N 49°09' W 123°02'0 0.0
2014-Jul-27 03:33N 49°09' W 123°02'0 0.0
2014-Jul-27 02:33N 49°09' W 123°02'0 0.0
2014-Jul-27 01:33N 49°09' W 123°02'0 0.0
2014-Jul-27 00:33N 49°09' W 123°02'0 0.0
2014-Jul-26 23:33N 49°09' W 123°02'0 0.0
2014-Jul-26 22:33N 49°09' W 123°02'3 3.3
2014-Jul-26 21:33N 49°07' W 123°06'1312.6
2014-Jul-26 20:33N 49°08' W 123°25'1413.6
2014-Jul-26 19:33N 49°13' W 123°44'8 7.9
2014-Jul-26 18:33N 49°10' W 123°56'0 0.0
2014-Jul-26 17:29N 49°10' W 123°56'0 0.0
2014-Jul-26 16:33N 49°10' W 123°56'0 0.0
2014-Jul-26 15:33N 49°10' W 123°56'0 0.0
2014-Jul-26 14:33N 49°10' W 123°56'0 0.0
2014-Jul-26 13:33N 49°10' W 123°56'0 0.0
2014-Jul-26 12:33N 49°10' W 123°56'2 1.8
2014-Jul-26 11:33N 49°11' W 123°54'1313.5
2014-Jul-26 10:33N 49°09' W 123°33'1414.2
2014-Jul-26 09:33N 49°07' W 123°12'6 6.5
2014-Jul-26 08:33N 49°09' W 123°02'0 0.0
2014-Jul-26 07:33N 49°09' W 123°02'7 7.0
2014-Jul-26 06:33N 49°08' W 123°13'1110.8
2014-Jul-26 05:33N 49°08' W 123°29'1312.7
2014-Jul-26 04:33N 49°13' W 123°47'6 6.4
2014-Jul-26 03:34N 49°10' W 123°56'0 0.0
2014-Jul-26 02:34N 49°10' W 123°56'1110.7
2014-Jul-26 01:33N 49°12' W 123°40'1313.5
2014-Jul-26 00:34N 49°07' W 123°21'1211.6
2014-Jul-25 23:34N 49°08' W 123°03'1 0.6
2014-Jul-25 22:34N 49°09' W 123°02'4 3.8
2014-Jul-25 21:34N 49°07' W 123°07'9 9.0
2014-Jul-25 20:33N 49°03' W 123°20'1313.0
2014-Jul-25 19:33N 48°50' W 123°21'9 9.1
2014-Jul-25 18:33N 48°41' W 123°24'0 0.0
2014-Jul-25 17:33N 48°41' W 123°24'0 0.0
2014-Jul-25 16:33N 48°41' W 123°24'0 0.0
2014-Jul-25 15:33N 48°41' W 123°24'0 0.0
2014-Jul-25 14:33N 48°41' W 123°24'0 0.0
2014-Jul-25 13:33N 48°41' W 123°24'0 0.0
2014-Jul-25 12:33N 48°41' W 123°24'1 0.5
2014-Jul-25 11:34N 48°42' W 123°24'1413.9
2014-Jul-25 10:33N 48°55' W 123°18'1313.0
2014-Jul-25 09:33N 49°08' W 123°14'8 7.8
2014-Jul-25 08:34N 49°09' W 123°02'0 0.0
2014-Jul-25 07:34N 49°09' W 123°02'8 7.5
2014-Jul-25 06:33N 49°08' W 123°14'1110.6
2014-Jul-25 05:33N 49°08' W 123°30'1313.1
2014-Jul-25 04:34N 49°13' W 123°48'6 5.7
2014-Jul-25 03:33N 49°10' W 123°56'0 0.4
2014-Jul-25 02:33N 49°10' W 123°55'1111.1
2014-Jul-25 01:33N 49°12' W 123°38'1414.0
2014-Jul-25 00:34N 49°06' W 123°19'1111.1
2014-Jul-24 23:34N 49°09' W 123°02'0 0.1
2014-Jul-24 22:33N 49°09' W 123°02'5 4.6
2014-Jul-24 21:33N 49°06' W 123°08'9 9.0
2014-Jul-24 20:33N 49°01' W 123°20'1312.8
2014-Jul-24 19:34N 48°49' W 123°21'8 7.6
2014-Jul-24 18:32N 48°41' W 123°24'0 0.0
2014-Jul-24 17:33N 48°41' W 123°24'0 0.0
2014-Jul-24 16:33N 48°41' W 123°24'0 0.0
2014-Jul-24 15:33N 48°41' W 123°24'0 0.0
2014-Jul-24 14:33N 48°41' W 123°24'0 0.0
2014-Jul-24 13:33N 48°41' W 123°24'0 0.0
2014-Jul-24 12:33N 48°41' W 123°24'0 0.5
2014-Jul-24 11:34N 48°42' W 123°24'1313.5
2014-Jul-24 10:34N 48°55' W 123°18'1413.5
2014-Jul-24 09:34N 49°08' W 123°13'7 6.9
2014-Jul-24 08:33N 49°09' W 123°02'0 0.0
2014-Jul-24 07:33N 49°09' W 123°02'7 6.7
2014-Jul-24 06:33N 49°07' W 123°12'1211.8
2014-Jul-24 05:34N 49°09' W 123°30'1312.9
2014-Jul-24 04:34N 49°13' W 123°49'6 5.6
2014-Jul-24 03:33N 49°10' W 123°56'0 0.1
2014-Jul-24 02:33N 49°10' W 123°56'1110.9
2014-Jul-24 01:33N 49°12' W 123°39'1313.2
2014-Jul-24 00:33N 49°06' W 123°21'1312.7
2014-Jul-23 23:34N 49°09' W 123°02'0 0.0
2014-Jul-23 22:33N 49°09' W 123°02'4 3.9
2014-Jul-23 21:34N 49°07' W 123°07'9 9.3
2014-Jul-23 20:33N 49°02' W 123°20'1312.8
2014-Jul-23 19:33N 48°50' W 123°21'9 8.7
2014-Jul-23 18:33N 48°41' W 123°24'0 0.0
2014-Jul-23 17:33N 48°41' W 123°24'0 0.0
2014-Jul-23 16:33N 48°41' W 123°24'0 0.0
2014-Jul-23 15:33N 48°41' W 123°24'0 0.0
2014-Jul-23 14:33N 48°41' W 123°24'0 0.0
2014-Jul-23 13:33N 48°41' W 123°24'0 0.0
2014-Jul-23 12:33N 48°41' W 123°24'1 0.9
2014-Jul-23 11:33N 48°42' W 123°24'1414.0
2014-Jul-23 10:33N 48°56' W 123°19'1212.5
2014-Jul-23 09:33N 49°08' W 123°14'8 8.0
2014-Jul-23 08:33N 49°09' W 123°02'0 0.0
2014-Jul-23 07:33N 49°09' W 123°02'7 6.7
2014-Jul-23 06:33N 49°07' W 123°12'1212.0
2014-Jul-23 05:33N 49°09' W 123°31'1312.6
2014-Jul-23 04:33N 49°13' W 123°49'6 5.7
2014-Jul-23 03:33N 49°10' W 123°56'0 0.1
2014-Jul-23 02:33N 49°10' W 123°56'1110.9
2014-Jul-23 01:34N 49°12' W 123°39'1413.5
2014-Jul-23 00:34N 49°06' W 123°21'1211.6
2014-Jul-22 23:33N 49°08' W 123°03'1 0.8
2014-Jul-22 22:33N 49°09' W 123°02'4 4.3
2014-Jul-22 21:33N 49°06' W 123°08'9 9.0
2014-Jul-22 20:33N 49°02' W 123°20'1211.5
2014-Jul-22 19:32N 48°51' W 123°21'10 9.8
2014-Jul-22 18:34N 48°41' W 123°24'0 0.0
2014-Jul-22 17:34N 48°41' W 123°24'0 0.0
2014-Jul-22 16:33N 48°41' W 123°24'0 0.0
2014-Jul-22 15:34N 48°41' W 123°24'0 0.0
2014-Jul-22 14:33N 48°41' W 123°24'0 0.0
2014-Jul-22 13:33N 48°41' W 123°24'0 0.0
2014-Jul-22 12:33N 48°41' W 123°24'0 0.2
2014-Jul-22 11:33N 48°41' W 123°24'1818.4
2014-Jul-22 10:33N 48°60' W 123°20'9 9.3
2014-Jul-22 09:34N 49°07' W 123°12'7 6.6
2014-Jul-22 08:33N 49°09' W 123°02'0 0.0
2014-Jul-22 07:33N 49°09' W 123°02'9 9.1
2014-Jul-22 06:33N 49°07' W 123°16'1212.1
2014-Jul-22 05:33N 49°09' W 123°34'1312.7
2014-Jul-22 04:33N 49°12' W 123°53'2 2.3
2014-Jul-22 03:33N 49°10' W 123°56'0 0.4
2014-Jul-22 02:33N 49°10' W 123°55'1111.4
2014-Jul-22 01:33N 49°12' W 123°38'1413.6
2014-Jul-22 00:34N 49°06' W 123°19'1111.5
2014-Jul-21 23:33N 49°09' W 123°02'0 0.1
2014-Jul-21 22:34N 49°09' W 123°02'0 0.1
2014-Jul-21 21:33N 49°09' W 123°02'0 0.0
2014-Jul-21 20:33N 49°09' W 123°02'0 0.0
2014-Jul-21 20:18N 49°09' W 123°02'0 0.0
2014-Jul-21 19:33N 49°09' W 123°02'0 0.0
2014-Jul-21 18:34N 49°09' W 123°02'0 0.0
2014-Jul-21 17:33N 49°09' W 123°02'0 0.0
2014-Jul-21 16:33N 49°09' W 123°02'0 0.0
2014-Jul-21 15:34N 49°09' W 123°02'0 0.0
2014-Jul-21 14:34N 49°09' W 123°02'0 0.0
2014-Jul-21 13:33N 49°09' W 123°02'0 0.0
2014-Jul-21 12:33N 49°09' W 123°02'0 0.0
2014-Jul-21 11:33N 49°09' W 123°02'0 0.0
2014-Jul-21 10:34N 49°09' W 123°02'0 0.0
2014-Jul-21 09:34N 49°09' W 123°02'0 0.0
2014-Jul-21 08:34N 49°09' W 123°02'0 0.0
2014-Jul-21 07:34N 49°09' W 123°02'0 0.0
2014-Jul-21 06:33N 49°09' W 123°02'0 0.0
2014-Jul-21 05:34N 49°09' W 123°02'0 0.0
2014-Jul-21 04:34N 49°09' W 123°02'0 0.0
2014-Jul-21 03:33N 49°09' W 123°02'0 0.0
2014-Jul-21 02:33N 49°09' W 123°02'0 0.0
2014-Jul-21 01:34N 49°09' W 123°02'0 0.0
2014-Jul-21 00:33N 49°09' W 123°02'0 0.0
2014-Jul-20 23:34N 49°09' W 123°02'0 0.0
2014-Jul-20 22:33N 49°09' W 123°02'0 0.0
2014-Jul-20 21:34N 49°09' W 123°02'0 0.0
2014-Jul-20 20:34N 49°09' W 123°02'0 0.0
2014-Jul-20 19:33N 49°09' W 123°02'0 0.0
2014-Jul-20 18:33N 49°09' W 123°02'0 0.0
2014-Jul-20 17:33N 49°09' W 123°02'0 0.0
2014-Jul-20 16:34N 49°09' W 123°02'0 0.0
2014-Jul-20 15:34N 49°09' W 123°02'6 6.3
2014-Jul-20 14:34N 49°07' W 123°11'9 9.0
2014-Jul-20 13:34N 49°07' W 123°25'1110.7
2014-Jul-20 12:34N 49°11' W 123°41'9 9.4
2014-Jul-20 11:33N 49°10' W 123°55'1 0.5
2014-Jul-20 10:33N 49°10' W 123°56'0 0.0
2014-Jul-20 09:33N 49°10' W 123°56'7 6.9
2014-Jul-20 08:33N 49°13' W 123°47'10 9.7
2014-Jul-20 07:34N 49°10' W 123°33'10 9.9
2014-Jul-20 06:34N 49°06' W 123°19'1110.5
2014-Jul-20 05:33N 49°08' W 123°03'1 0.7
2014-Jul-20 04:33N 49°09' W 123°02'0 0.0
2014-Jul-20 03:33N 49°09' W 123°02'0 0.0
2014-Jul-20 02:33N 49°09' W 123°02'0 0.0
2014-Jul-20 01:33N 49°09' W 123°02'0 0.0
2014-Jul-20 00:34N 49°09' W 123°02'0 0.0
2014-Jul-19 23:33N 49°09' W 123°02'0 0.0
2014-Jul-19 22:34N 49°09' W 123°02'4 3.7
2014-Jul-19 21:33N 49°07' W 123°07'1211.7
2014-Jul-19 20:33N 49°07' W 123°25'1313.2
2014-Jul-19 19:34N 49°12' W 123°43'8 8.2
2014-Jul-19 18:33N 49°10' W 123°56'0 0.0
2014-Jul-19 17:34N 49°10' W 123°56'0 0.0
2014-Jul-19 16:33N 49°10' W 123°56'0 0.0
2014-Jul-19 15:33N 49°10' W 123°56'0 0.0
2014-Jul-19 14:33N 49°10' W 123°56'0 0.0
2014-Jul-19 13:34N 49°10' W 123°56'0 0.0
2014-Jul-19 12:34N 49°10' W 123°56'5 5.4
2014-Jul-19 11:34N 49°13' W 123°49'1212.2
2014-Jul-19 10:33N 49°09' W 123°32'1313.0
2014-Jul-19 09:33N 49°07' W 123°12'7 6.7
2014-Jul-19 08:33N 49°09' W 123°02'0 0.0
2014-Jul-19 07:33N 49°09' W 123°02'9 9.2
2014-Jul-19 06:34N 49°07' W 123°16'1111.4
2014-Jul-19 05:33N 49°09' W 123°33'1111.2
2014-Jul-19 04:34N 49°13' W 123°49'5 5.2
2014-Jul-19 03:34N 49°10' W 123°56'0 0.2
2014-Jul-19 02:33N 49°10' W 123°55'1110.7
2014-Jul-19 01:34N 49°12' W 123°39'1312.5
2014-Jul-19 00:33N 49°07' W 123°22'1312.9
2014-Jul-18 23:33N 49°09' W 123°02'0 0.2
2014-Jul-18 22:33N 49°09' W 123°02'5 5.1
2014-Jul-18 21:33N 49°06' W 123°09'9 8.7
2014-Jul-18 20:33N 49°01' W 123°20'1010.3
2014-Jul-18 19:33N 48°51' W 123°21'1010.0
2014-Jul-18 18:33N 48°41' W 123°24'0 0.0
2014-Jul-18 17:34N 48°41' W 123°24'0 0.0
2014-Jul-18 16:33N 48°41' W 123°24'0 0.0
2014-Jul-18 15:33N 48°41' W 123°24'0 0.0
2014-Jul-18 14:33N 48°41' W 123°24'0 0.0
2014-Jul-18 13:34N 48°41' W 123°24'0 0.0
2014-Jul-18 12:34N 48°41' W 123°24'3 2.8
2014-Jul-18 11:33N 48°43' W 123°21'1010.4
2014-Jul-18 10:34N 48°53' W 123°18'1413.6
2014-Jul-18 09:33N 49°07' W 123°17'1010.0
2014-Jul-18 08:33N 49°09' W 123°02'0 0.0
2014-Jul-18 07:33N 49°09' W 123°02'9 9.0
2014-Jul-18 06:33N 49°07' W 123°16'1111.3
2014-Jul-18 05:33N 49°09' W 123°33'1211.6
2014-Jul-18 04:33N 49°13' W 123°50'  

Dump ship's entire track history